Ashford, Alabama
Current Conditions -  °F | °C
As of 10:53 PM on Wednesday 22 Oct 2014 (Local Time) from KDHN Reporting Station
Clear Clear  
Wind Chill: 48°   Ceiling: Unl
Heat Index: 48°   Visibility: 10mi
Dew Point: 43°   Wind: 3mph
Humidity: 83%   Direction: 20°NNE
Pressure: 30.12"   Gusts: NA
Location:  31.18°N, 85.24°W
Report Text: KDHN 230353Z AUTO 02003KT 10SM CLR 09/06 A3012 RMK AO2 SLP199 T00890061
Loading
Personal Weather Stations






























Interactive Weather Map
Tropical Storm Tracking
New forecast layout! Learn more

10-Day Weather Forecast

Advertisements
Track Severe Weather on mobile